Time;durP1;ratioP1;P1;durP2;ratioP2;P2;SDS_P1;SDS_P2;PMS_P1;PMS_P2;Temp;Humidity;BMP_temperature;BMP_pressure;BME280_temperature;BME280_humidity;BME280_pressure;Samples;Min_cycle;Max_cycle;Signal;HPM_P1;HPM_P2
2023/06/09 00:02:11;;;;;;;9.10;6.25;;;;;;;26.08;49.64;99316.63;4501045;31;34498;-74
2023/06/09 00:04:39;;;;;;;8.55;6.07;;;;;;;26.08;49.64;99316.63;4501182;31;33848;-75
2023/06/09 00:07:07;;;;;;;10.40;6.30;;;;;;;26.09;49.63;99329.19;4501354;31;33041;-76
2023/06/09 00:09:35;;;;;;;9.15;6.55;;;;;;;26.08;49.58;99333.84;4501143;31;34921;-75
2023/06/09 00:12:03;;;;;;;8.73;6.57;;;;;;;26.08;49.59;99330.28;4501159;31;33678;-74
2023/06/09 00:14:31;;;;;;;7.45;5.75;;;;;;;26.08;49.75;99327.56;4501057;31;35060;-75
2023/06/09 00:16:59;;;;;;;10.73;6.03;;;;;;;26.08;49.67;99333.03;4501018;31;33189;-72
2023/06/09 00:19:29;;;;;;;10.23;6.50;;;;;;;26.08;49.57;99325.63;4501172;31;33848;-72
2023/06/09 00:21:57;;;;;;;10.55;6.07;;;;;;;26.07;49.55;99326.72;4499597;31;33906;-75
2023/06/09 00:24:25;;;;;;;8.23;5.18;;;;;;;26.07;49.54;99328.63;4501052;31;33561;-75
2023/06/09 00:26:52;;;;;;;7.60;4.60;;;;;;;26.06;49.49;99329.69;4501138;31;34083;-75
2023/06/09 00:29:22;;;;;;;7.55;4.50;;;;;;;26.07;49.44;99328.63;4500743;31;34686;-75
2023/06/09 00:31:50;;;;;;;;;;;;;;;26.06;49.39;99324.22;4501384;31;33881;-74
2023/06/09 00:34:17;;;;;;;8.45;4.37;;;;;;;26.15;49.17;99330.91;4501115;31;34162;-74
2023/06/09 00:36:45;;;;;;;6.32;4.00;;;;;;;26.08;49.25;99333.03;4500911;31;33362;-75
2023/06/09 00:39:12;;;;;;;7.22;4.03;;;;;;;26.04;49.34;99327.22;4501248;31;34809;-75
2023/06/09 00:41:41;;;;;;;7.60;3.97;;;;;;;26.02;49.28;99323.94;4500909;31;33717;-75
2023/06/09 00:44:09;;;;;;;6.75;3.90;;;;;;;26.02;49.26;99310.25;4500766;31;34020;-75
2023/06/09 00:46:39;;;;;;;7.78;4.00;;;;;;;26.02;49.19;99295.75;4501181;31;33407;-71
2023/06/09 00:49:08;;;;;;;;;;;;;;;26.01;49.19;99297.66;4500043;31;34065;-75
2023/06/09 00:51:37;;;;;;;5.55;3.78;;;;;;;26.11;48.92;99306.00;4499655;31;33918;-74
2023/06/09 00:54:05;;;;;;;5.95;4.07;;;;;;;26.04;49.03;99302.63;4501128;31;34257;-74
2023/06/09 00:56:34;;;;;;;7.03;3.85;;;;;;;26.01;49.11;99299.56;4500887;31;34044;-75
2023/06/09 00:59:01;;;;;;;8.80;4.05;;;;;;;26.00;49.09;99300.66;4482629;32;34736;-75
2023/06/09 01:01:32;;;;;;;7.75;3.70;;;;;;;25.98;49.06;99295.47;4484923;32;33638;-69
2023/06/09 01:04:00;;;;;;;5.75;3.78;;;;;;;25.99;49.04;99285.34;4484787;32;34973;-75
2023/06/09 01:06:45;;;;;;;5.55;3.30;;;;;;;25.98;49.03;99280.97;4485285;32;34347;-74
2023/06/09 01:09:22;;;;;;;6.40;3.33;;;;;;;25.99;49.00;99274.41;4484985;32;34637;-76
2023/06/09 01:12:10;;;;;;;5.82;3.70;;;;;;;25.97;49.04;99271.09;4483826;32;33962;-75
2023/06/09 01:14:50;;;;;;;5.85;3.00;;;;;;;25.98;49.03;99270.84;4483633;32;34606;-75
2023/06/09 01:17:18;;;;;;;6.57;3.60;;;;;;;25.97;49.04;99252.78;4483738;32;34241;-75
2023/06/09 01:19:48;;;;;;;5.30;3.30;;;;;;;25.96;49.02;99251.12;4484824;32;33693;-75
2023/06/09 01:22:54;;;;;;;5.05;3.40;;;;;;;25.95;49.03;99246.75;4480939;32;33509;-76
2023/06/09 01:25:38;;;;;;;6.50;3.20;;;;;;;25.97;48.97;99250.03;4467938;32;34927;-71
2023/06/09 01:28:11;;;;;;;5.85;3.15;;;;;;;25.95;49.04;99242.09;4468289;32;32985;-75
2023/06/09 01:30:40;;;;;;;8.65;3.78;;;;;;;25.93;49.10;99247.03;4455308;32;33724;-74
2023/06/09 01:33:15;;;;;;;7.00;3.92;;;;;;;25.93;49.04;99240.72;4455137;32;33743;-75
2023/06/09 01:35:43;;;;;;;9.75;3.95;;;;;;;25.94;48.98;99247.84;4468953;32;33073;-74
2023/06/09 01:38:10;;;;;;;11.80;3.53;;;;;;;25.93;48.93;99247.03;4467828;32;34193;-74
2023/06/09 01:40:38;;;;;;;6.28;3.40;;;;;;;25.93;48.87;99248.94;4467926;32;34004;-73
2023/06/09 01:43:06;;;;;;;5.53;3.45;;;;;;;25.93;48.90;99247.03;4455123;32;34762;-74
2023/06/09 01:45:33;;;;;;;8.65;3.47;;;;;;;25.93;48.87;99244.28;4469062;32;33872;-74
2023/06/09 01:48:10;;;;;;;5.37;3.22;;;;;;;25.93;48.85;99248.94;4469148;32;34312;-72
2023/06/09 01:50:49;;;;;;;5.22;3.40;;;;;;;25.94;48.87;99250.56;4467756;32;33695;-74
2023/06/09 01:53:19;;;;;;;5.90;3.40;;;;;;;25.94;48.83;99247.84;4468117;32;33853;-66
2023/06/09 01:55:52;;;;;;;5.80;3.67;;;;;;;25.91;48.79;99245.59;4467520;32;33975;-74
2023/06/09 01:58:22;;;;;;;5.57;3.65;;;;;;;25.93;48.80;99254.41;4467791;32;33635;-75
2023/06/09 02:00:50;;;;;;;5.50;3.30;;;;;;;25.92;48.79;99253.53;4498979;31;33831;-72
2023/06/09 02:03:20;;;;;;;7.18;3.10;;;;;;;25.91;48.76;99257.38;4486560;31;33457;-76
2023/06/09 02:05:48;;;;;;;7.80;3.40;;;;;;;25.91;48.77;99256.53;4500377;31;34552;-74
2023/06/09 02:08:15;;;;;;;6.00;3.20;;;;;;;25.93;48.75;99257.13;4486045;31;33408;-75
2023/06/09 02:10:43;;;;;;;6.07;2.90;;;;;;;25.92;48.81;99255.44;4499188;31;33814;-75
2023/06/09 02:13:14;;;;;;;6.10;3.35;;;;;;;25.91;48.79;99251.06;4498431;31;34748;-69
2023/06/09 02:15:45;;;;;;;7.78;3.80;;;;;;;25.90;48.77;99261.19;4500377;31;34375;-73
2023/06/09 02:18:13;;;;;;;6.03;3.53;;;;;;;25.90;48.78;99258.44;4500288;31;33355;-75
2023/06/09 02:20:42;;;;;;;6.07;3.55;;;;;;;25.90;48.73;99265.84;4500241;31;34074;-74
2023/06/09 02:23:10;;;;;;;5.27;3.63;;;;;;;25.89;48.69;99265.00;4500032;31;33709;-73
2023/06/09 02:25:38;;;;;;;6.15;3.42;;;;;;;25.91;48.64;99271.03;4500314;31;33922;-75
2023/06/09 02:28:06;;;;;;;6.12;3.20;;;;;;;25.90;48.64;99268.56;4500206;31;33408;-75
2023/06/09 02:30:34;;;;;;;5.22;3.22;;;;;;;25.90;48.63;99274.03;4500038;31;34595;-75
2023/06/09 02:33:02;;;;;;;6.82;3.67;;;;;;;25.90;48.60;99271.28;4500249;31;33953;-76
2023/06/09 02:35:30;;;;;;;6.22;3.25;;;;;;;25.89;48.58;99275.13;4500185;31;34128;-75
2023/06/09 02:37:58;;;;;;;5.62;3.10;;;;;;;25.88;48.57;99282.50;4500234;31;34269;-74
2023/06/09 02:40:26;;;;;;;5.28;3.40;;;;;;;25.88;48.55;99282.50;4500172;31;33847;-75
2023/06/09 02:42:54;;;;;;;5.65;3.35;;;;;;;25.87;48.56;99283.56;4499990;31;34029;-73
2023/06/09 02:45:21;;;;;;;4.80;3.10;;;;;;;25.88;48.54;99276.19;4499766;31;34710;-74
2023/06/09 02:47:49;;;;;;;5.70;3.40;;;;;;;25.87;48.54;99280.00;4500020;31;34373;-71
2023/06/09 02:50:17;;;;;;;6.12;3.12;;;;;;;25.87;48.52;99277.25;4500053;31;34587;-75
2023/06/09 02:52:46;;;;;;;6.30;3.40;;;;;;;25.86;48.54;99276.44;4500363;31;33566;-75
2023/06/09 02:55:14;;;;;;;6.10;3.25;;;;;;;25.85;48.50;99272.06;4500200;31;34588;-71
2023/06/09 02:57:42;;;;;;;5.00;3.22;;;;;;;25.86;48.54;99272.88;4500203;31;33509;-73
2023/06/09 03:00:10;;;;;;;4.60;2.87;;;;;;;25.87;48.53;99274.53;4488511;31;34017;-74
2023/06/09 03:02:40;;;;;;;5.12;2.83;;;;;;;25.84;48.52;99281.34;4484386;32;33521;-74
2023/06/09 03:05:09;;;;;;;4.53;2.80;;;;;;;25.84;48.54;99278.63;4484206;32;34028;-75
2023/06/09 03:07:37;;;;;;;5.87;2.92;;;;;;;25.85;48.51;99273.97;4484225;32;33380;-74
2023/06/09 03:10:06;;;;;;;5.62;2.80;;;;;;;25.84;48.49;99267.69;4484259;32;33781;-74
2023/06/09 03:12:34;;;;;;;6.15;3.33;;;;;;;25.84;48.46;99266.88;4482807;32;33836;-75
2023/06/09 03:15:01;;;;;;;4.80;2.80;;;;;;;25.83;48.45;99265.19;4483978;32;33927;-75
2023/06/09 03:17:30;;;;;;;6.72;2.78;;;;;;;25.84;48.47;99266.88;4483975;32;33423;-73
2023/06/09 03:19:58;;;;;;;7.35;2.85;;;;;;;25.83;48.43;99260.53;4483766;32;33893;-74
2023/06/09 03:22:27;;;;;;;4.45;2.80;;;;;;;25.83;48.47;99254.25;4484011;32;34726;-75
2023/06/09 03:24:55;;;;;;;8.00;3.40;;;;;;;25.83;48.48;99265.19;4484039;32;34255;-73
2023/06/09 03:27:23;;;;;;;6.25;3.05;;;;;;;25.82;48.54;99256.16;4485752;32;33224;-75
2023/06/09 03:29:50;;;;;;;3.62;2.58;;;;;;;25.81;48.49;99254.53;4484406;32;33673;-72
2023/06/09 03:32:18;;;;;;;7.05;2.95;;;;;;;25.82;48.49;99258.91;4485928;32;33992;-76
2023/06/09 03:34:47;;;;;;;5.72;2.80;;;;;;;25.81;48.50;99261.91;4485662;32;33933;-75
2023/06/09 03:37:15;;;;;;;7.65;3.12;;;;;;;25.82;48.46;99269.00;4485936;32;34054;-74
2023/06/09 03:39:42;;;;;;;7.70;3.30;;;;;;;25.81;48.50;99268.19;4484736;32;33807;-74
2023/06/09 03:42:10;;;;;;;5.72;3.22;;;;;;;25.81;48.52;99265.44;4485603;32;33710;-73
2023/06/09 03:44:38;;;;;;;4.55;2.58;;;;;;;25.81;48.44;99270.91;4485521;32;34092;-61
2023/06/09 03:47:09;;;;;;;5.90;3.10;;;;;;;25.79;48.42;99267.63;4484120;31;34831;-59
2023/06/09 03:49:37;;;;;;;5.05;2.85;;;;;;;25.80;48.41;99262.97;4480845;31;33842;-59
2023/06/09 03:52:06;;;;;;;5.60;2.85;;;;;;;25.79;48.40;99262.16;4492819;31;34749;-58
2023/06/09 03:54:35;;;;;;;5.07;2.60;;;;;;;25.79;48.42;99269.53;4492568;31;33820;-58
2023/06/09 03:57:04;;;;;;;5.15;2.72;;;;;;;25.79;48.41;99269.53;4490375;31;34128;-58
2023/06/09 03:59:32;;;;;;;6.03;3.00;;;;;;;25.79;48.40;99272.28;4491404;31;34592;-58
2023/06/09 04:02:00;;;;;;;4.10;2.50;;;;;;;25.79;48.40;99269.53;4493611;31;34770;-59
2023/06/09 04:04:28;;;;;;;4.62;2.53;;;;;;;25.77;48.41;99275.25;4489455;31;34477;-74
2023/06/09 04:06:59;;;;;;;7.90;2.85;;;;;;;25.76;48.41;99279.06;4499285;31;33469;-74
2023/06/09 04:09:27;;;;;;;4.22;2.60;;;;;;;25.77;48.39;99279.88;4501108;31;33570;-73
2023/06/09 04:11:55;;;;;;;4.85;2.72;;;;;;;25.76;48.42;99280.97;4501171;31;34751;-75
2023/06/09 04:14:23;;;;;;;5.55;2.35;;;;;;;25.76;48.43;99284.53;4494554;31;34098;-70
2023/06/09 04:16:51;;;;;;;5.30;2.80;;;;;;;25.76;48.39;99280.97;4493331;31;33479;-68
2023/06/09 04:19:19;;;;;;;6.12;2.70;;;;;;;25.75;48.40;99280.09;4487615;31;34678;-72
2023/06/09 04:21:48;;;;;;;5.57;2.75;;;;;;;25.76;48.43;99291.91;4485314;32;33969;-75
2023/06/09 04:24:15;;;;;;;5.87;2.95;;;;;;;25.75;48.44;99282.03;4483752;32;34081;-74
2023/06/09 04:26:44;;;;;;;5.07;2.83;;;;;;;25.75;48.42;99282.03;4485222;32;33536;-74
2023/06/09 04:29:12;;;;;;;3.92;2.75;;;;;;;25.76;48.42;99291.91;4485931;31;34709;-75
2023/06/09 04:31:42;;;;;;;6.32;2.97;;;;;;;25.74;48.42;99289.41;4493483;31;34731;-72
2023/06/09 04:34:15;;;;;;;4.95;2.53;;;;;;;25.74;48.42;99291.28;4505234;31;33967;-60
2023/06/09 04:36:47;;;;;;;6.30;2.97;;;;;;;25.74;48.41;99296.75;4500598;31;34066;-72
2023/06/09 04:39:15;;;;;;;8.52;2.85;;;;;;;25.73;48.41;99292.37;4500977;31;34702;-74
2023/06/09 04:41:44;;;;;;;7.55;2.85;;;;;;;25.73;48.45;99308.75;4500895;31;34092;-69
2023/06/09 04:44:13;;;;;;;5.07;3.03;;;;;;;25.73;48.44;99312.31;4501055;31;33116;-71
2023/06/09 04:46:42;;;;;;;5.12;2.72;;;;;;;25.73;48.45;99315.03;4501145;31;34377;-74
2023/06/09 04:49:10;;;;;;;4.75;2.65;;;;;;;25.73;48.39;99312.31;4501050;31;33606;-74
2023/06/09 04:51:48;;;;;;;6.85;3.17;;;;;;;25.74;48.37;99315.87;4486601;31;35128;-74
2023/06/09 04:54:17;;;;;;;5.63;2.73;;;;;;;25.73;48.37;99316.97;4501143;31;33676;-66
2023/06/09 04:56:45;;;;;;;7.82;3.08;;;;;;;25.74;48.33;99319.47;4486633;31;34051;-75
2023/06/09 04:59:12;;;;;;;4.22;2.75;;;;;;;25.73;48.31;99323.25;4500226;31;33933;-70
2023/06/09 05:01:40;;;;;;;5.03;2.80;;;;;;;25.73;48.33;99322.41;4500443;31;34710;-61
2023/06/09 05:04:08;;;;;;;3.80;2.40;;;;;;;25.74;48.36;99332.25;4500892;31;33893;-70
2023/06/09 05:06:36;;;;;;;5.35;2.80;;;;;;;25.73;48.39;99328.72;4486744;31;33335;-76
2023/06/09 05:09:05;;;;;;;8.40;3.03;;;;;;;25.73;48.40;99336.91;4500821;31;33486;-67
2023/06/09 05:11:36;;;;;;;5.28;2.60;;;;;;;25.73;48.42;99338.81;4500890;31;34045;-71
2023/06/09 05:14:07;;;;;;;4.65;2.72;;;;;;;25.73;48.42;99333.34;4474211;31;34135;-62
2023/06/09 05:16:35;;;;;;;4.37;2.85;;;;;;;25.72;48.43;99335.25;4501000;31;34313;-62
2023/06/09 05:19:03;;;;;;;4.97;2.87;;;;;;;25.73;48.48;99336.09;4500919;31;34308;-68
2023/06/09 05:21:30;;;;;;;4.22;2.40;;;;;;;25.71;48.49;99333.62;4500706;31;33710;-75
2023/06/09 05:23:58;;;;;;;4.00;2.55;;;;;;;25.70;48.48;99335.53;4486459;31;33923;-62
2023/06/09 05:26:27;;;;;;;7.07;3.03;;;;;;;25.71;48.49;99330.87;4501066;31;33402;-74
2023/06/09 05:28:55;;;;;;;5.30;2.57;;;;;;;25.70;48.48;99327.31;4500662;31;33830;-66
2023/06/09 05:31:23;;;;;;;5.47;2.67;;;;;;;25.72;48.46;99331.69;4500357;31;33818;-71
2023/06/09 05:33:51;;;;;;;4.47;2.67;;;;;;;25.69;48.49;99331.16;4500773;31;34529;-64
2023/06/09 05:36:19;;;;;;;6.15;2.58;;;;;;;25.70;48.51;99334.69;4500893;31;33845;-76
2023/06/09 05:38:47;;;;;;;4.43;2.60;;;;;;;25.69;48.51;99331.16;4500527;31;33830;-75
2023/06/09 05:41:15;;;;;;;4.20;2.45;;;;;;;25.69;48.54;99338.50;4500613;31;34107;-71
2023/06/09 05:43:43;;;;;;;4.45;2.30;;;;;;;25.68;48.55;99332.19;4500407;31;33933;-69
2023/06/09 05:46:10;;;;;;;4.03;2.65;;;;;;;25.68;48.54;99326.72;4500214;31;33507;-62
2023/06/09 05:48:38;;;;;;;10.20;3.12;;;;;;;25.69;48.50;99331.16;4499560;31;33813;-69
2023/06/09 05:51:06;;;;;;;5.68;2.83;;;;;;;25.68;48.50;99329.47;4500560;31;33550;-71
2023/06/09 05:53:34;;;;;;;6.65;2.95;;;;;;;25.68;48.51;99329.47;4500378;31;33824;-75
2023/06/09 05:56:02;;;;;;;4.57;2.62;;;;;;;25.67;48.51;99327.81;4486140;31;33330;-61
2023/06/09 05:58:33;;;;;;;6.07;2.67;;;;;;;25.67;48.52;99336.00;4500559;31;33933;-61
2023/06/09 06:01:03;;;;;;;5.18;2.25;;;;;;;25.69;48.50;99330.28;4500217;31;34725;-74
2023/06/09 06:03:33;;;;;;;6.57;2.35;;;;;;;25.68;48.51;99339.56;4500263;31;33850;-64
2023/06/09 06:06:00;;;;;;;3.90;2.30;;;;;;;25.67;48.52;99338.75;4500725;31;33675;-71
2023/06/09 06:08:28;;;;;;;4.28;2.62;;;;;;;25.67;48.51;99330.56;4485973;31;33965;-70
2023/06/09 06:10:56;;;;;;;4.68;2.33;;;;;;;25.67;48.53;99332.47;4500569;31;34381;-70
2023/06/09 06:13:23;;;;;;;4.68;2.40;;;;;;;25.66;48.50;99328.91;4500300;31;34820;-66
2023/06/09 06:15:51;;;;;;;6.50;2.83;;;;;;;25.66;48.48;99323.44;4500269;31;33101;-75
2023/06/09 06:18:19;;;;;;;5.93;2.60;;;;;;;25.66;48.46;99334.38;4499895;31;33842;-72
2023/06/09 06:20:46;;;;;;;6.53;3.08;;;;;;;25.66;48.47;99339.84;4500294;31;35011;-72
2023/06/09 06:23:14;;;;;;;4.90;2.50;;;;;;;25.66;48.57;99339.84;4500293;31;33486;-75
2023/06/09 06:25:41;;;;;;;4.97;2.62;;;;;;;25.66;48.57;99349.94;4500151;31;33121;-66
2023/06/09 06:28:09;;;;;;;4.93;3.20;;;;;;;25.66;48.51;99349.94;4495983;31;33923;-59
2023/06/09 06:30:37;;;;;;;4.45;2.92;;;;;;;25.67;48.52;99357.06;4497046;31;84211;-65
2023/06/09 06:33:06;;;;;;;7.78;3.00;;;;;;;25.66;48.50;99350.75;4484435;32;33689;-64
2023/06/09 06:35:34;;;;;;;4.97;2.83;;;;;;;25.67;48.50;99349.69;4489872;31;33325;-60
2023/06/09 06:38:01;;;;;;;6.90;3.08;;;;;;;25.67;48.51;99343.38;4485838;31;34911;-57
2023/06/09 06:40:29;;;;;;;4.15;2.83;;;;;;;25.67;48.48;99351.59;4500228;31;33898;-62
2023/06/09 06:42:56;;;;;;;6.65;3.15;;;;;;;25.67;48.50;99343.38;4500172;31;33887;-58
2023/06/09 06:45:26;;;;;;;4.82;2.87;;;;;;;25.68;48.52;99345.03;4500247;31;33377;-71
2023/06/09 06:47:54;;;;;;;5.10;3.05;;;;;;;25.67;48.51;99360.59;4499941;31;33704;-60
2023/06/09 06:50:22;;;;;;;6.62;3.25;;;;;;;25.66;48.53;99369.88;4499833;31;33931;-58
2023/06/09 06:52:53;;;;;;;7.97;3.30;;;;;;;25.66;48.55;99364.44;4499806;31;34015;-67
2023/06/09 06:55:20;;;;;;;4.60;3.03;;;;;;;25.67;48.58;99374.28;4485843;31;32871;-70
2023/06/09 06:57:48;;;;;;;4.95;3.42;;;;;;;25.67;48.59;99374.28;4499864;31;33547;-70
2023/06/09 07:00:15;;;;;;;4.97;3.40;;;;;;;25.67;48.60;99373.44;4488029;31;34758;-64
2023/06/09 07:02:47;;;;;;;5.75;3.37;;;;;;;25.67;48.59;99371.53;4507880;31;34259;-59
2023/06/09 07:05:15;;;;;;;5.75;3.65;;;;;;;25.67;48.60;99371.53;4485384;31;33359;-54
2023/06/09 07:07:43;;;;;;;7.12;3.58;;;;;;;25.66;48.59;99369.88;4499794;31;34643;-65
2023/06/09 07:10:12;;;;;;;7.37;3.03;;;;;;;25.69;48.51;99376.75;4499898;31;33931;-72
2023/06/09 07:12:41;;;;;;;5.87;3.12;;;;;;;25.70;48.52;99364.75;4499660;31;33903;-72
2023/06/09 07:15:09;;;;;;;6.37;3.40;;;;;;;25.69;48.50;99372.12;4498946;31;33138;-62
2023/06/09 07:17:37;;;;;;;5.18;3.08;;;;;;;25.70;48.48;99367.50;4491417;31;34564;-63
2023/06/09 07:20:05;;;;;;;5.62;3.58;;;;;;;25.70;48.50;99365.59;4483829;32;33839;-63
2023/06/09 07:22:33;;;;;;;5.68;3.33;;;;;;;25.69;48.46;99372.12;4483937;32;33583;-62
2023/06/09 07:25:02;;;;;;;6.00;3.55;;;;;;;25.70;48.46;99373.78;4483960;31;34355;-63
2023/06/09 07:27:30;;;;;;;6.93;3.83;;;;;;;25.70;48.51;99371.03;4487754;31;33709;-63
2023/06/09 07:29:57;;;;;;;6.10;4.30;;;;;;;25.70;48.54;99368.31;4499366;31;34029;-64
2023/06/09 07:32:25;;;;;;;6.87;4.25;;;;;;;25.72;48.57;99373.50;4496514;31;34365;-64
2023/06/09 07:34:53;;;;;;;6.28;4.35;;;;;;;25.72;48.59;99373.50;4483684;32;33379;-63
2023/06/09 07:37:22;;;;;;;8.70;4.78;;;;;;;25.70;48.63;99364.75;4483652;32;34834;-62
2023/06/09 07:39:49;;;;;;;9.25;5.05;;;;;;;25.71;48.65;99366.41;4483405;32;34765;-61
2023/06/09 07:42:22;;;;;;;8.38;5.00;;;;;;;25.70;48.72;99367.50;4483882;31;34113;-62
2023/06/09 07:44:50;;;;;;;6.80;4.55;;;;;;;25.71;48.75;99360.94;4483253;32;34507;-67
2023/06/09 07:47:18;;;;;;;7.53;4.45;;;;;;;25.70;48.75;99362.84;4483632;32;34095;-66
2023/06/09 07:49:45;;;;;;;6.75;4.28;;;;;;;25.70;48.74;99360.13;4498575;31;34501;-64
2023/06/09 07:52:13;;;;;;;7.05;4.95;;;;;;;25.70;48.76;99362.03;4499284;31;34332;-63
2023/06/09 07:54:50;;;;;;;9.95;4.60;;;;;;;25.70;48.75;99360.13;4486001;31;32679;-65
2023/06/09 07:57:18;;;;;;;6.07;4.40;;;;;;;25.70;48.74;99354.66;4497575;31;33993;-73
2023/06/09 07:59:46;;;;;;;6.65;4.05;;;;;;;25.70;48.76;99353.81;4496951;31;33884;-72
2023/06/09 08:02:13;;;;;;;6.32;3.33;;;;;;;25.71;48.78;99352.75;4499154;31;33963;-70
2023/06/09 08:04:41;;;;;;;5.35;3.50;;;;;;;25.70;48.78;99348.38;4499070;31;33633;-62
2023/06/09 08:07:09;;;;;;;6.25;3.50;;;;;;;25.70;48.77;99348.38;4498818;31;34041;-62
2023/06/09 08:09:37;;;;;;;7.50;3.80;;;;;;;25.69;48.77;99350.28;4499245;31;34018;-70
2023/06/09 08:12:06;;;;;;;4.68;2.90;;;;;;;25.69;48.75;99344.81;4499537;31;33655;-61
2023/06/09 08:14:33;;;;;;;7.20;3.47;;;;;;;25.69;48.75;99349.41;4483644;31;34072;-61
2023/06/09 08:17:01;;;;;;;6.80;3.95;;;;;;;25.70;48.71;99346.44;4485343;32;33868;-63
2023/06/09 08:19:29;;;;;;;5.40;3.78;;;;;;;25.70;48.70;99346.44;4485360;32;34147;-73
2023/06/09 08:21:57;;;;;;;5.37;3.53;;;;;;;25.69;48.71;99342.06;4500689;31;34055;-72
2023/06/09 08:24:25;;;;;;;5.03;3.47;;;;;;;25.69;48.71;99349.41;4500980;31;33488;-72
2023/06/09 08:26:54;;;;;;;5.45;3.37;;;;;;;25.69;48.68;99347.53;4501226;31;33904;-72
2023/06/09 08:29:23;;;;;;;7.22;3.37;;;;;;;25.69;48.63;99346.69;4500705;31;34065;-72
2023/06/09 08:31:50;;;;;;;6.28;3.37;;;;;;;25.70;48.60;99345.63;4496251;31;34181;-72
2023/06/09 08:34:18;;;;;;;5.60;3.67;;;;;;;25.70;48.61;99354.66;4485273;32;33648;-73
2023/06/09 08:36:46;;;;;;;6.68;3.58;;;;;;;25.71;48.57;99358.22;4485275;32;33805;-73
2023/06/09 08:39:14;;;;;;;6.07;3.78;;;;;;;25.72;48.54;99362.59;4494510;31;35002;-70
2023/06/09 08:41:42;;;;;;;5.00;3.45;;;;;;;25.71;48.55;99352.75;4486962;31;33838;-72
2023/06/09 08:44:11;;;;;;;4.57;3.25;;;;;;;25.70;48.55;99351.09;4486513;31;33482;-72
2023/06/09 08:46:38;;;;;;;5.07;3.37;;;;;;;25.71;48.49;99355.47;4486643;31;34631;-71
2023/06/09 08:49:07;;;;;;;5.22;3.50;;;;;;;25.72;48.50;99361.75;4467467;32;34963;-72
2023/06/09 08:51:37;;;;;;;6.68;3.62;;;;;;;25.70;48.51;99365.59;4457936;32;34019;-62
2023/06/09 08:54:05;;;;;;;5.72;3.95;;;;;;;25.71;48.50;99358.22;4478746;31;33394;-66
2023/06/09 08:56:33;;;;;;;5.78;4.03;;;;;;;25.73;48.50;99363.41;4473726;31;33897;-64
2023/06/09 08:59:00;;;;;;;7.90;4.00;;;;;;;25.73;48.52;99371.59;4500734;31;35107;-73
2023/06/09 09:01:28;;;;;;;5.70;4.32;;;;;;;25.70;48.54;99376.50;4486603;31;34542;-72
2023/06/09 09:03:56;;;;;;;5.65;4.10;;;;;;;25.70;48.54;99368.31;4473621;31;33628;-71
2023/06/09 09:06:23;;;;;;;5.75;4.10;;;;;;;25.70;48.56;99370.22;4500110;31;33603;-72
2023/06/09 09:08:51;;;;;;;6.20;4.43;;;;;;;25.70;48.63;99373.78;4486823;31;33867;-73
2023/06/09 09:11:19;;;;;;;6.35;4.00;;;;;;;25.70;48.63;99370.22;4473756;31;34600;-70
2023/06/09 09:13:49;;;;;;;6.70;4.00;;;;;;;25.70;48.63;99370.22;4500445;31;34017;-71
2023/06/09 09:16:18;;;;;;;9.75;4.43;;;;;;;25.70;48.65;99372.94;4500637;31;34600;-70
2023/06/09 09:18:46;;;;;;;10.90;4.55;;;;;;;25.68;48.64;99370.44;4500487;31;33851;-69
2023/06/09 09:21:23;;;;;;;6.78;4.18;;;;;;;25.70;48.59;99381.97;4486259;31;33820;-72
2023/06/09 09:23:55;;;;;;;5.75;3.95;;;;;;;25.72;48.58;99370.78;4487902;31;33373;-73
2023/06/09 09:26:30;;;;;;;6.37;3.60;;;;;;;25.69;48.61;99371.28;4457713;32;34841;-72
2023/06/09 09:29:04;;;;;;;7.18;3.90;;;;;;;25.69;48.62;99368.53;4485069;32;33877;-73
2023/06/09 09:31:37;;;;;;;6.37;4.12;;;;;;;25.68;48.64;99373.19;4495363;31;33689;-73
2023/06/09 09:34:10;;;;;;;6.10;3.90;;;;;;;25.68;48.66;99373.19;4486742;31;32682;-72
2023/06/09 09:36:45;;;;;;;6.78;4.25;;;;;;;25.69;48.64;99374.88;4486167;31;33815;-72
2023/06/09 09:39:14;;;;;;;5.75;3.97;;;;;;;25.70;48.62;99378.41;4499550;31;34712;-72
2023/06/09 09:42:03;;;;;;;5.93;3.60;;;;;;;25.69;48.62;99380.31;4485003;32;34797;-68
2023/06/09 09:44:41;;;;;;;5.95;3.97;;;;;;;25.73;48.51;99377.06;4484726;32;34207;-73
2023/06/09 09:47:14;;;;;;;5.37;3.60;;;;;;;25.70;48.55;99367.50;4458051;32;33960;-72
2023/06/09 09:49:56;;;;;;;5.80;3.90;;;;;;;25.69;48.58;99372.12;4484814;32;33681;-71
2023/06/09 09:52:27;;;;;;;4.70;3.47;;;;;;;25.70;48.59;99373.78;4457946;32;34775;-71
2023/06/09 09:54:56;;;;;;;6.20;3.60;;;;;;;25.68;48.66;99373.19;4497792;31;34157;-73
2023/06/09 09:57:24;;;;;;;4.93;3.30;;;;;;;25.67;48.65;99374.28;4499787;31;33951;-71
2023/06/09 09:59:52;;;;;;;5.37;3.30;;;;;;;25.68;48.63;99372.38;4486138;31;34221;-72
2023/06/09 10:02:24;;;;;;;5.32;3.35;;;;;;;25.68;48.64;99373.19;4506023;31;34742;-63
2023/06/09 10:04:52;;;;;;;5.18;3.67;;;;;;;25.67;48.65;99366.06;4516407;31;33156;-72
2023/06/09 10:07:23;;;;;;;5.65;3.72;;;;;;;25.68;48.64;99369.63;4501846;31;33590;-72
2023/06/09 10:09:54;;;;;;;5.75;3.53;;;;;;;25.69;48.60;99360.34;4516625;31;34037;-71
2023/06/09 10:12:22;;;;;;;5.30;3.45;;;;;;;25.68;48.59;99362.25;4489520;31;33801;-73
2023/06/09 10:14:50;;;;;;;5.68;3.10;;;;;;;25.68;48.62;99359.53;4488741;31;34517;-72
2023/06/09 10:17:20;;;;;;;4.43;3.28;;;;;;;25.68;48.64;99362.25;4501947;31;33987;-73
2023/06/09 10:19:51;;;;;;;4.50;3.12;;;;;;;25.68;48.63;99356.78;4501881;31;33778;-73
2023/06/09 10:22:20;;;;;;;5.50;3.10;;;;;;;25.68;48.64;99356.78;4516196;31;34526;-71
2023/06/09 10:24:48;;;;;;;4.95;3.25;;;;;;;25.68;48.61;99359.53;4516172;31;33398;-72
2023/06/09 10:27:15;;;;;;;4.55;3.05;;;;;;;25.68;48.64;99351.31;4515921;31;34875;-72
2023/06/09 10:29:43;;;;;;;6.20;3.12;;;;;;;25.68;48.66;99345.87;4515919;31;34725;-69
2023/06/09 10:32:11;;;;;;;6.12;3.30;;;;;;;25.68;48.64;99345.03;4501662;31;34018;-72
2023/06/09 10:34:41;;;;;;;5.75;2.55;;;;;;;25.68;48.64;99343.13;4488152;31;34249;-69
2023/06/09 10:37:08;;;;;;;6.00;3.05;;;;;;;25.68;48.63;99347.78;4501838;31;33727;-73
2023/06/09 10:39:52;;;;;;;5.10;3.20;;;;;;;25.69;48.57;99347.53;4501787;31;34487;-71
2023/06/09 10:42:40;;;;;;;4.70;2.72;;;;;;;25.70;48.54;99349.19;4515856;31;34195;-72
2023/06/09 10:45:12;;;;;;;7.00;3.25;;;;;;;25.69;48.61;99344.81;4501587;31;33613;-73
2023/06/09 10:47:49;;;;;;;3.92;2.55;;;;;;;25.67;48.66;99348.84;4515927;31;34733;-71
2023/06/09 10:50:30;;;;;;;4.10;2.60;;;;;;;25.69;48.62;99352.16;4515708;31;34830;-73
2023/06/09 10:52:58;;;;;;;4.87;2.78;;;;;;;25.67;48.65;99352.41;4515794;31;33946;-71
2023/06/09 10:55:27;;;;;;;4.30;2.72;;;;;;;25.67;48.69;99346.94;4500059;31;34255;-72
2023/06/09 10:57:55;;;;;;;5.17;3.00;;;;;;;25.67;48.71;99333.28;4499910;31;34474;-73
2023/06/09 11:00:23;;;;;;;3.47;2.17;;;;;;;25.67;48.71;99338.75;4499951;31;34821;-72
2023/06/09 11:03:08;;;;;;;3.60;2.45;;;;;;;25.66;48.71;99331.63;4499735;31;33877;-73
2023/06/09 11:05:40;;;;;;;6.43;2.53;;;;;;;25.65;48.71;99327.25;4487661;31;34142;-71
2023/06/09 11:08:08;;;;;;;5.20;2.67;;;;;;;25.66;48.70;99320.72;4499648;31;33814;-73
2023/06/09 11:10:36;;;;;;;4.80;2.65;;;;;;;25.67;48.73;99313.34;4499879;31;34821;-72
2023/06/09 11:13:38;;;;;;;4.15;2.60;;;;;;;25.67;48.71;99319.62;4499673;31;33973;-72
2023/06/09 11:16:06;;;;;;;4.40;2.58;;;;;;;25.69;48.69;99319.34;4500055;31;33410;-73
2023/06/09 11:18:34;;;;;;;4.18;2.50;;;;;;;25.66;48.74;99307.06;4485599;31;34620;-71
2023/06/09 11:21:16;;;;;;;5.72;2.60;;;;;;;25.67;48.77;99313.34;4499635;31;33814;-72
2023/06/09 11:24:00;;;;;;;4.72;2.45;;;;;;;25.67;48.75;99305.97;4472735;31;34595;-69
2023/06/09 11:26:28;;;;;;;4.00;2.50;;;;;;;25.68;48.71;99306.78;4499591;31;33627;-72
2023/06/09 11:28:56;;;;;;;3.22;2.05;;;;;;;25.65;48.80;99316.34;4499548;31;33929;-73
2023/06/09 11:31:24;;;;;;;4.25;2.45;;;;;;;25.64;48.78;99309.19;4482311;32;33935;-71
2023/06/09 11:33:53;;;;;;;3.70;2.70;;;;;;;25.65;48.77;99315.50;4482503;32;33847;-73
2023/06/09 11:36:23;;;;;;;3.47;2.20;;;;;;;25.65;48.73;99308.13;4483776;32;33328;-73
2023/06/09 11:38:50;;;;;;;4.00;2.47;;;;;;;25.65;48.70;99305.41;4482349;32;34242;-73
2023/06/09 11:41:19;;;;;;;3.58;2.17;;;;;;;25.67;48.64;99318.81;4482567;32;34433;-73
2023/06/09 11:43:49;;;;;;;4.12;2.37;;;;;;;25.67;48.63;99313.34;4483607;32;34007;-69
2023/06/09 11:46:16;;;;;;;4.00;2.22;;;;;;;25.66;48.59;99301.59;4483439;32;33521;-63